sensor_id;sensor_type;location;lat;lon;timestamp;temperature;humidity
83405;SHT30;73331;48.168;20.776;2024-03-17T00:00:31;8.73;86.27
83405;SHT30;73331;48.168;20.776;2024-03-17T00:02:02;8.73;86.58
83405;SHT30;73331;48.168;20.776;2024-03-17T00:03:33;8.42;87.13
83405;SHT30;73331;48.168;20.776;2024-03-17T00:05:04;7.93;89.43
83405;SHT30;73331;48.168;20.776;2024-03-17T00:06:34;7.69;91.08
83405;SHT30;73331;48.168;20.776;2024-03-17T00:08:05;7.46;91.98
83405;SHT30;73331;48.168;20.776;2024-03-17T00:09:35;7.28;92.40
83405;SHT30;73331;48.168;20.776;2024-03-17T00:11:06;7.16;92.75
83405;SHT30;73331;48.168;20.776;2024-03-17T00:12:37;7.09;93.13
83405;SHT30;73331;48.168;20.776;2024-03-17T00:14:07;7.05;93.34
83405;SHT30;73331;48.168;20.776;2024-03-17T00:15:38;6.98;93.49
83405;SHT30;73331;48.168;20.776;2024-03-17T00:17:08;6.98;93.64
83405;SHT30;73331;48.168;20.776;2024-03-17T00:18:39;7.28;93.05
83405;SHT30;73331;48.168;20.776;2024-03-17T00:20:11;7.14;92.67
83405;SHT30;73331;48.168;20.776;2024-03-17T00:21:49;6.99;93.40
83405;SHT30;73331;48.168;20.776;2024-03-17T00:23:22;6.95;93.56
83405;SHT30;73331;48.168;20.776;2024-03-17T00:24:52;6.85;93.77
83405;SHT30;73331;48.168;20.776;2024-03-17T00:26:23;6.80;94.17
83405;SHT30;73331;48.168;20.776;2024-03-17T00:27:53;6.73;94.48
83405;SHT30;73331;48.168;20.776;2024-03-17T00:29:27;6.68;94.62
83405;SHT30;73331;48.168;20.776;2024-03-17T00:30:58;6.58;94.99
83405;SHT30;73331;48.168;20.776;2024-03-17T00:32:28;6.64;95.17
83405;SHT30;73331;48.168;20.776;2024-03-17T00:34:00;6.84;94.84
83405;SHT30;73331;48.168;20.776;2024-03-17T00:35:30;6.89;93.51
83405;SHT30;73331;48.168;20.776;2024-03-17T00:37:01;6.73;94.24
83405;SHT30;73331;48.168;20.776;2024-03-17T00:38:31;6.65;94.66
83405;SHT30;73331;48.168;20.776;2024-03-17T00:40:03;6.58;94.89
83405;SHT30;73331;48.168;20.776;2024-03-17T00:41:33;6.63;95.22
83405;SHT30;73331;48.168;20.776;2024-03-17T00:43:05;6.64;95.37
83405;SHT30;73331;48.168;20.776;2024-03-17T00:44:35;6.58;95.45
83405;SHT30;73331;48.168;20.776;2024-03-17T00:46:05;6.63;95.24
83405;SHT30;73331;48.168;20.776;2024-03-17T00:47:37;6.63;95.18
83405;SHT30;73331;48.168;20.776;2024-03-17T00:49:09;6.63;95.34
83405;SHT30;73331;48.168;20.776;2024-03-17T00:50:40;6.70;95.50
83405;SHT30;73331;48.168;20.776;2024-03-17T00:52:11;6.64;95.73
83405;SHT30;73331;48.168;20.776;2024-03-17T00:53:41;6.67;95.70
83405;SHT30;73331;48.168;20.776;2024-03-17T00:55:12;6.63;95.90
83405;SHT30;73331;48.168;20.776;2024-03-17T00:56:44;6.60;95.86
83405;SHT30;73331;48.168;20.776;2024-03-17T00:58:15;6.75;95.44
83405;SHT30;73331;48.168;20.776;2024-03-17T00:59:45;6.68;95.37
83405;SHT30;73331;48.168;20.776;2024-03-17T01:01:16;6.71;95.31
83405;SHT30;73331;48.168;20.776;2024-03-17T01:02:46;6.61;95.61
83405;SHT30;73331;48.168;20.776;2024-03-17T01:04:17;6.54;96.08
83405;SHT30;73331;48.168;20.776;2024-03-17T01:05:47;6.60;95.98
83405;SHT30;73331;48.168;20.776;2024-03-17T01:07:20;6.58;96.07
83405;SHT30;73331;48.168;20.776;2024-03-17T01:08:51;6.65;96.35
83405;SHT30;73331;48.168;20.776;2024-03-17T01:10:22;6.63;96.21
83405;SHT30;73331;48.168;20.776;2024-03-17T01:11:53;6.65;96.42
83405;SHT30;73331;48.168;20.776;2024-03-17T01:13:24;6.78;96.36
83405;SHT30;73331;48.168;20.776;2024-03-17T01:14:54;6.68;96.55
83405;SHT30;73331;48.168;20.776;2024-03-17T01:16:25;6.74;96.70
83405;SHT30;73331;48.168;20.776;2024-03-17T01:17:55;6.84;96.86
83405;SHT30;73331;48.168;20.776;2024-03-17T01:19:26;6.88;96.87
83405;SHT30;73331;48.168;20.776;2024-03-17T01:20:57;6.81;97.15
83405;SHT30;73331;48.168;20.776;2024-03-17T01:22:27;6.78;97.27
83405;SHT30;73331;48.168;20.776;2024-03-17T01:23:57;6.80;97.55
83405;SHT30;73331;48.168;20.776;2024-03-17T01:25:28;6.80;97.46
83405;SHT30;73331;48.168;20.776;2024-03-17T01:27:00;6.84;97.27
83405;SHT30;73331;48.168;20.776;2024-03-17T01:28:31;6.75;97.34
83405;SHT30;73331;48.168;20.776;2024-03-17T01:30:02;6.77;97.32
83405;SHT30;73331;48.168;20.776;2024-03-17T01:31:33;6.67;97.89
83405;SHT30;73331;48.168;20.776;2024-03-17T01:33:03;6.68;97.48
83405;SHT30;73331;48.168;20.776;2024-03-17T01:34:35;6.68;97.29
83405;SHT30;73331;48.168;20.776;2024-03-17T01:36:06;6.70;97.20
83405;SHT30;73331;48.168;20.776;2024-03-17T01:37:37;6.58;97.07
83405;SHT30;73331;48.168;20.776;2024-03-17T01:39:08;6.61;96.96
83405;SHT30;73331;48.168;20.776;2024-03-17T01:40:38;6.63;96.80
83405;SHT30;73331;48.168;20.776;2024-03-17T01:42:09;6.44;96.91
83405;SHT30;73331;48.168;20.776;2024-03-17T01:43:39;6.40;96.86
83405;SHT30;73331;48.168;20.776;2024-03-17T01:46:47;6.78;96.21
83405;SHT30;73331;48.168;20.776;2024-03-17T01:48:17;6.89;95.55
83405;SHT30;73331;48.168;20.776;2024-03-17T01:49:49;6.89;94.78
83405;SHT30;73331;48.168;20.776;2024-03-17T01:51:21;6.73;94.97
83405;SHT30;73331;48.168;20.776;2024-03-17T01:52:53;6.61;95.48
83405;SHT30;73331;48.168;20.776;2024-03-17T01:54:25;6.60;95.57
83405;SHT30;73331;48.168;20.776;2024-03-17T01:55:57;6.80;95.39
83405;SHT30;73331;48.168;20.776;2024-03-17T01:57:29;7.16;95.06
83405;SHT30;73331;48.168;20.776;2024-03-17T01:59:01;7.29;94.53
83405;SHT30;73331;48.168;20.776;2024-03-17T02:00:31;7.45;93.31
83405;SHT30;73331;48.168;20.776;2024-03-17T02:02:04;7.76;91.10
83405;SHT30;73331;48.168;20.776;2024-03-17T02:03:36;7.77;89.97
83405;SHT30;73331;48.168;20.776;2024-03-17T02:05:06;7.19;90.89
83405;SHT30;73331;48.168;20.776;2024-03-17T02:06:37;7.45;90.90
83405;SHT30;73331;48.168;20.776;2024-03-17T02:08:09;7.04;90.66
83405;SHT30;73331;48.168;20.776;2024-03-17T02:09:41;6.60;92.25
83405;SHT30;73331;48.168;20.776;2024-03-17T02:11:33;6.41;93.56
83405;SHT30;73331;48.168;20.776;2024-03-17T02:13:05;6.37;93.97
83405;SHT30;73331;48.168;20.776;2024-03-17T02:14:36;6.27;94.57
83405;SHT30;73331;48.168;20.776;2024-03-17T02:16:06;6.20;95.14
83405;SHT30;73331;48.168;20.776;2024-03-17T02:17:37;6.36;95.25
83405;SHT30;73331;48.168;20.776;2024-03-17T02:19:07;6.87;94.66
83405;SHT30;73331;48.168;20.776;2024-03-17T02:20:38;6.51;94.14
83405;SHT30;73331;48.168;20.776;2024-03-17T02:22:29;6.45;94.86
83405;SHT30;73331;48.168;20.776;2024-03-17T02:24:00;6.23;95.15
83405;SHT30;73331;48.168;20.776;2024-03-17T02:25:31;6.17;95.79
83405;SHT30;73331;48.168;20.776;2024-03-17T02:27:02;6.12;96.08
83405;SHT30;73331;48.168;20.776;2024-03-17T02:28:42;6.05;96.16
83405;SHT30;73331;48.168;20.776;2024-03-17T02:30:13;6.26;96.40
83405;SHT30;73331;48.168;20.776;2024-03-17T02:31:43;6.16;96.27
83405;SHT30;73331;48.168;20.776;2024-03-17T02:33:14;6.12;96.51
83405;SHT30;73331;48.168;20.776;2024-03-17T02:34:44;6.21;96.79
83405;SHT30;73331;48.168;20.776;2024-03-17T02:36:15;6.26;96.74
83405;SHT30;73331;48.168;20.776;2024-03-17T02:37:47;6.27;96.95
83405;SHT30;73331;48.168;20.776;2024-03-17T02:39:18;6.24;96.80
83405;SHT30;73331;48.168;20.776;2024-03-17T02:41:06;6.29;96.71
83405;SHT30;73331;48.168;20.776;2024-03-17T02:42:37;6.21;96.72
83405;SHT30;73331;48.168;20.776;2024-03-17T02:44:12;6.24;96.70
83405;SHT30;73331;48.168;20.776;2024-03-17T02:45:43;6.27;96.76
83405;SHT30;73331;48.168;20.776;2024-03-17T02:47:13;6.29;96.60
83405;SHT30;73331;48.168;20.776;2024-03-17T02:48:48;6.29;96.48
83405;SHT30;73331;48.168;20.776;2024-03-17T02:50:19;6.26;96.79
83405;SHT30;73331;48.168;20.776;2024-03-17T02:51:49;6.29;96.86
83405;SHT30;73331;48.168;20.776;2024-03-17T02:53:20;6.30;96.90
83405;SHT30;73331;48.168;20.776;2024-03-17T02:54:50;6.31;96.87
83405;SHT30;73331;48.168;20.776;2024-03-17T02:56:23;6.26;97.03
83405;SHT30;73331;48.168;20.776;2024-03-17T02:57:53;6.29;96.99
83405;SHT30;73331;48.168;20.776;2024-03-17T02:59:24;6.29;97.14
83405;SHT30;73331;48.168;20.776;2024-03-17T03:00:54;6.27;97.08
83405;SHT30;73331;48.168;20.776;2024-03-17T03:02:25;6.30;97.17
83405;SHT30;73331;48.168;20.776;2024-03-17T03:03:55;6.24;97.41
83405;SHT30;73331;48.168;20.776;2024-03-17T03:05:26;6.24;97.17
83405;SHT30;73331;48.168;20.776;2024-03-17T03:06:56;6.41;97.17
83405;SHT30;73331;48.168;20.776;2024-03-17T03:08:27;6.37;96.98
83405;SHT30;73331;48.168;20.776;2024-03-17T03:09:57;6.31;97.02
83405;SHT30;73331;48.168;20.776;2024-03-17T03:11:28;6.26;97.13
83405;SHT30;73331;48.168;20.776;2024-03-17T03:12:58;6.29;97.12
83405;SHT30;73331;48.168;20.776;2024-03-17T03:14:29;6.27;97.25
83405;SHT30;73331;48.168;20.776;2024-03-17T03:16:00;6.23;97.59
83405;SHT30;73331;48.168;20.776;2024-03-17T03:17:30;6.23;97.35
83405;SHT30;73331;48.168;20.776;2024-03-17T03:19:01;6.23;97.35
83405;SHT30;73331;48.168;20.776;2024-03-17T03:20:31;6.14;97.48
83405;SHT30;73331;48.168;20.776;2024-03-17T03:22:02;6.12;97.92
83405;SHT30;73331;48.168;20.776;2024-03-17T03:23:32;6.12;97.72
83405;SHT30;73331;48.168;20.776;2024-03-17T03:25:03;6.16;97.63
83405;SHT30;73331;48.168;20.776;2024-03-17T03:26:34;6.13;97.64
83405;SHT30;73331;48.168;20.776;2024-03-17T03:28:04;6.09;97.63
83405;SHT30;73331;48.168;20.776;2024-03-17T03:29:35;6.06;97.88
83405;SHT30;73331;48.168;20.776;2024-03-17T03:31:10;6.16;97.92
83405;SHT30;73331;48.168;20.776;2024-03-17T03:32:43;6.41;97.77
83405;SHT30;73331;48.168;20.776;2024-03-17T03:34:14;6.57;97.77
83405;SHT30;73331;48.168;20.776;2024-03-17T03:35:44;6.85;96.69
83405;SHT30;73331;48.168;20.776;2024-03-17T03:37:15;6.88;95.33
83405;SHT30;73331;48.168;20.776;2024-03-17T03:38:46;6.60;95.38
83405;SHT30;73331;48.168;20.776;2024-03-17T03:40:17;6.38;95.98
83405;SHT30;73331;48.168;20.776;2024-03-17T03:41:47;6.31;96.24
83405;SHT30;73331;48.168;20.776;2024-03-17T03:43:18;6.29;96.36
83405;SHT30;73331;48.168;20.776;2024-03-17T03:44:48;6.24;96.77
83405;SHT30;73331;48.168;20.776;2024-03-17T03:46:19;6.23;96.49
83405;SHT30;73331;48.168;20.776;2024-03-17T03:47:51;6.23;96.66
83405;SHT30;73331;48.168;20.776;2024-03-17T03:49:21;6.27;96.80
83405;SHT30;73331;48.168;20.776;2024-03-17T03:50:51;6.24;96.66
83405;SHT30;73331;48.168;20.776;2024-03-17T03:52:22;6.26;96.60
83405;SHT30;73331;48.168;20.776;2024-03-17T03:53:52;6.36;96.64
83405;SHT30;73331;48.168;20.776;2024-03-17T03:55:23;6.33;96.77
83405;SHT30;73331;48.168;20.776;2024-03-17T03:56:54;6.33;96.77
83405;SHT30;73331;48.168;20.776;2024-03-17T03:58:24;6.31;96.59
83405;SHT30;73331;48.168;20.776;2024-03-17T03:59:55;6.30;96.63
83405;SHT30;73331;48.168;20.776;2024-03-17T04:01:26;6.31;96.63
83405;SHT30;73331;48.168;20.776;2024-03-17T04:02:56;6.40;96.55
83405;SHT30;73331;48.168;20.776;2024-03-17T04:04:27;6.40;96.57
83405;SHT30;73331;48.168;20.776;2024-03-17T04:06:07;6.81;96.00
83405;SHT30;73331;48.168;20.776;2024-03-17T04:07:39;6.94;94.90
83405;SHT30;73331;48.168;20.776;2024-03-17T04:09:10;6.77;94.24
83405;SHT30;73331;48.168;20.776;2024-03-17T04:10:43;6.60;94.56
83405;SHT30;73331;48.168;20.776;2024-03-17T04:12:14;6.64;94.97
83405;SHT30;73331;48.168;20.776;2024-03-17T04:13:44;6.64;94.81
83405;SHT30;73331;48.168;20.776;2024-03-17T04:15:15;6.54;94.95
83405;SHT30;73331;48.168;20.776;2024-03-17T04:16:45;6.51;95.21
83405;SHT30;73331;48.168;20.776;2024-03-17T04:18:16;6.50;95.44
83405;SHT30;73331;48.168;20.776;2024-03-17T04:19:48;6.53;95.50
83405;SHT30;73331;48.168;20.776;2024-03-17T04:21:21;6.61;95.42
83405;SHT30;73331;48.168;20.776;2024-03-17T04:22:51;6.61;95.27
83405;SHT30;73331;48.168;20.776;2024-03-17T04:24:22;6.70;95.11
83405;SHT30;73331;48.168;20.776;2024-03-17T04:25:53;6.71;94.93
83405;SHT30;73331;48.168;20.776;2024-03-17T04:27:23;6.84;94.88
83405;SHT30;73331;48.168;20.776;2024-03-17T04:28:54;6.71;94.76
83405;SHT30;73331;48.168;20.776;2024-03-17T04:30:24;6.68;95.03
83405;SHT30;73331;48.168;20.776;2024-03-17T04:31:55;6.70;95.27
83405;SHT30;73331;48.168;20.776;2024-03-17T04:33:25;6.68;95.34
83405;SHT30;73331;48.168;20.776;2024-03-17T04:34:56;6.68;95.39
83405;SHT30;73331;48.168;20.776;2024-03-17T04:36:27;6.68;95.44
83405;SHT30;73331;48.168;20.776;2024-03-17T04:37:57;6.73;95.53
83405;SHT30;73331;48.168;20.776;2024-03-17T04:39:28;6.77;95.63
83405;SHT30;73331;48.168;20.776;2024-03-17T04:40:58;6.73;95.48
83405;SHT30;73331;48.168;20.776;2024-03-17T04:42:40;6.71;95.64
83405;SHT30;73331;48.168;20.776;2024-03-17T04:44:10;6.65;95.73
83405;SHT30;73331;48.168;20.776;2024-03-17T04:45:41;6.68;95.72
83405;SHT30;73331;48.168;20.776;2024-03-17T04:47:11;6.64;95.78
83405;SHT30;73331;48.168;20.776;2024-03-17T04:48:42;6.65;95.80
83405;SHT30;73331;48.168;20.776;2024-03-17T04:50:13;6.58;96.06
83405;SHT30;73331;48.168;20.776;2024-03-17T04:51:43;6.58;96.13
83405;SHT30;73331;48.168;20.776;2024-03-17T04:53:14;6.57;96.40
83405;SHT30;73331;48.168;20.776;2024-03-17T04:54:45;6.57;96.65
83405;SHT30;73331;48.168;20.776;2024-03-17T04:56:16;6.57;96.73
83405;SHT30;73331;48.168;20.776;2024-03-17T04:57:46;6.57;96.85
83405;SHT30;73331;48.168;20.776;2024-03-17T04:59:16;6.61;96.85
83405;SHT30;73331;48.168;20.776;2024-03-17T05:00:47;6.61;96.87
83405;SHT30;73331;48.168;20.776;2024-03-17T05:02:17;6.67;96.97
83405;SHT30;73331;48.168;20.776;2024-03-17T05:03:51;6.64;96.92
83405;SHT30;73331;48.168;20.776;2024-03-17T05:05:21;6.65;96.95
83405;SHT30;73331;48.168;20.776;2024-03-17T05:06:54;6.73;96.96
83405;SHT30;73331;48.168;20.776;2024-03-17T05:08:24;6.75;96.92
83405;SHT30;73331;48.168;20.776;2024-03-17T05:09:55;6.84;96.84
83405;SHT30;73331;48.168;20.776;2024-03-17T05:11:25;6.81;96.75
83405;SHT30;73331;48.168;20.776;2024-03-17T05:12:56;6.83;96.74
83405;SHT30;73331;48.168;20.776;2024-03-17T05:14:27;6.95;96.52
83405;SHT30;73331;48.168;20.776;2024-03-17T05:15:57;7.23;96.25
83405;SHT30;73331;48.168;20.776;2024-03-17T05:17:28;7.15;95.47
83405;SHT30;73331;48.168;20.776;2024-03-17T05:18:58;7.12;95.43
83405;SHT30;73331;48.168;20.776;2024-03-17T05:20:29;7.46;95.14
83405;SHT30;73331;48.168;20.776;2024-03-17T05:21:59;7.59;94.25
83405;SHT30;73331;48.168;20.776;2024-03-17T05:23:31;7.46;93.89
83405;SHT30;73331;48.168;20.776;2024-03-17T05:25:02;7.52;93.72
83405;SHT30;73331;48.168;20.776;2024-03-17T05:26:33;7.62;93.37
83405;SHT30;73331;48.168;20.776;2024-03-17T05:28:04;7.53;93.48
83405;SHT30;73331;48.168;20.776;2024-03-17T05:29:34;7.46;93.86
83405;SHT30;73331;48.168;20.776;2024-03-17T05:31:07;7.59;94.05
83405;SHT30;73331;48.168;20.776;2024-03-17T05:32:38;7.77;94.87
83405;SHT30;73331;48.168;20.776;2024-03-17T05:34:09;7.77;94.72
83405;SHT30;73331;48.168;20.776;2024-03-17T05:35:40;7.95;94.43
83405;SHT30;73331;48.168;20.776;2024-03-17T05:37:11;7.98;94.13
83405;SHT30;73331;48.168;20.776;2024-03-17T05:38:41;7.91;94.13
83405;SHT30;73331;48.168;20.776;2024-03-17T05:40:12;7.81;94.47
83405;SHT30;73331;48.168;20.776;2024-03-17T05:41:42;7.83;94.51
83405;SHT30;73331;48.168;20.776;2024-03-17T05:43:14;7.81;94.56
83405;SHT30;73331;48.168;20.776;2024-03-17T05:44:44;7.81;94.57
83405;SHT30;73331;48.168;20.776;2024-03-17T05:46:21;7.81;94.57
83405;SHT30;73331;48.168;20.776;2024-03-17T05:47:51;7.79;94.70
83405;SHT30;73331;48.168;20.776;2024-03-17T05:49:22;7.87;94.73
83405;SHT30;73331;48.168;20.776;2024-03-17T05:50:52;7.87;94.46
83405;SHT30;73331;48.168;20.776;2024-03-17T05:52:23;7.89;94.24
83405;SHT30;73331;48.168;20.776;2024-03-17T05:53:53;8.18;93.15
83405;SHT30;73331;48.168;20.776;2024-03-17T05:55:26;8.79;91.05
83405;SHT30;73331;48.168;20.776;2024-03-17T05:56:56;8.95;90.17
83405;SHT30;73331;48.168;20.776;2024-03-17T05:58:27;9.05;89.44
83405;SHT30;73331;48.168;20.776;2024-03-17T05:59:57;9.13;88.84
83405;SHT30;73331;48.168;20.776;2024-03-17T06:01:28;9.27;88.40
83405;SHT30;73331;48.168;20.776;2024-03-17T06:02:58;9.41;88.07
83405;SHT30;73331;48.168;20.776;2024-03-17T06:04:30;9.47;87.82
83405;SHT30;73331;48.168;20.776;2024-03-17T06:06:01;9.30;87.65
83405;SHT30;73331;48.168;20.776;2024-03-17T06:07:32;9.22;88.50
83405;SHT30;73331;48.168;20.776;2024-03-17T06:09:02;9.60;87.31
83405;SHT30;73331;48.168;20.776;2024-03-17T06:10:36;9.62;87.07
83405;SHT30;73331;48.168;20.776;2024-03-17T06:12:06;9.73;86.74
83405;SHT30;73331;48.168;20.776;2024-03-17T06:13:37;9.23;88.65
83405;SHT30;73331;48.168;20.776;2024-03-17T06:15:08;9.33;88.65
83405;SHT30;73331;48.168;20.776;2024-03-17T06:16:39;9.09;89.43
83405;SHT30;73331;48.168;20.776;2024-03-17T06:18:12;9.07;89.50
83405;SHT30;73331;48.168;20.776;2024-03-17T06:19:44;9.10;89.87
83405;SHT30;73331;48.168;20.776;2024-03-17T06:21:15;9.16;90.16
83405;SHT30;73331;48.168;20.776;2024-03-17T06:22:45;9.12;90.02
83405;SHT30;73331;48.168;20.776;2024-03-17T06:24:16;8.99;90.39
83405;SHT30;73331;48.168;20.776;2024-03-17T06:25:48;9.36;89.65
83405;SHT30;73331;48.168;20.776;2024-03-17T06:27:18;9.39;89.55
83405;SHT30;73331;48.168;20.776;2024-03-17T06:28:49;9.57;88.95
83405;SHT30;73331;48.168;20.776;2024-03-17T06:30:20;9.31;89.34
83405;SHT30;73331;48.168;20.776;2024-03-17T06:31:51;9.67;88.26
83405;SHT30;73331;48.168;20.776;2024-03-17T06:33:22;9.82;87.43
83405;SHT30;73331;48.168;20.776;2024-03-17T06:34:52;9.74;87.62
83405;SHT30;73331;48.168;20.776;2024-03-17T06:36:22;9.67;87.70
83405;SHT30;73331;48.168;20.776;2024-03-17T06:37:53;9.57;88.32
83405;SHT30;73331;48.168;20.776;2024-03-17T06:39:24;9.54;88.33
83405;SHT30;73331;48.168;20.776;2024-03-17T06:40:54;9.46;88.67
83405;SHT30;73331;48.168;20.776;2024-03-17T06:42:25;9.36;89.09
83405;SHT30;73331;48.168;20.776;2024-03-17T06:43:55;9.34;89.39
83405;SHT30;73331;48.168;20.776;2024-03-17T06:45:26;9.33;89.42
83405;SHT30;73331;48.168;20.776;2024-03-17T06:46:56;9.37;89.21
83405;SHT30;73331;48.168;20.776;2024-03-17T06:48:28;9.41;89.29
83405;SHT30;73331;48.168;20.776;2024-03-17T06:49:58;9.44;89.19
83405;SHT30;73331;48.168;20.776;2024-03-17T06:51:29;9.46;89.05
83405;SHT30;73331;48.168;20.776;2024-03-17T06:52:59;9.29;89.25
83405;SHT30;73331;48.168;20.776;2024-03-17T06:54:30;9.26;89.83
83405;SHT30;73331;48.168;20.776;2024-03-17T06:56:02;8.82;91.75
83405;SHT30;73331;48.168;20.776;2024-03-17T06:57:34;8.61;92.61
83405;SHT30;73331;48.168;20.776;2024-03-17T06:59:04;8.65;92.98
83405;SHT30;73331;48.168;20.776;2024-03-17T07:00:34;9.00;91.41
83405;SHT30;73331;48.168;20.776;2024-03-17T07:02:05;9.20;90.12
83405;SHT30;73331;48.168;20.776;2024-03-17T07:03:37;9.13;89.88
83405;SHT30;73331;48.168;20.776;2024-03-17T07:05:07;8.86;91.33
83405;SHT30;73331;48.168;20.776;2024-03-17T07:06:38;8.65;92.30
83405;SHT30;73331;48.168;20.776;2024-03-17T07:08:08;8.61;92.65
83405;SHT30;73331;48.168;20.776;2024-03-17T07:09:40;8.62;92.40
83405;SHT30;73331;48.168;20.776;2024-03-17T07:11:11;8.64;92.55
83405;SHT30;73331;48.168;20.776;2024-03-17T07:12:41;8.76;92.23
83405;SHT30;73331;48.168;20.776;2024-03-17T07:14:12;9.19;90.57
83405;SHT30;73331;48.168;20.776;2024-03-17T07:15:47;9.46;89.18
83405;SHT30;73331;48.168;20.776;2024-03-17T07:17:17;9.58;88.72
83405;SHT30;73331;48.168;20.776;2024-03-17T07:18:48;9.43;88.89
83405;SHT30;73331;48.168;20.776;2024-03-17T07:20:20;9.03;90.38
83405;SHT30;73331;48.168;20.776;2024-03-17T07:21:50;8.93;91.18
83405;SHT30;73331;48.168;20.776;2024-03-17T07:23:21;9.26;90.11
83405;SHT30;73331;48.168;20.776;2024-03-17T07:24:55;9.40;89.37
83405;SHT30;73331;48.168;20.776;2024-03-17T07:26:31;9.26;89.65
83405;SHT30;73331;48.168;20.776;2024-03-17T07:28:03;9.48;89.43
83405;SHT30;73331;48.168;20.776;2024-03-17T07:29:33;9.71;87.78
83405;SHT30;73331;48.168;20.776;2024-03-17T07:31:04;9.65;87.84
83405;SHT30;73331;48.168;20.776;2024-03-17T07:32:34;9.48;88.88
83405;SHT30;73331;48.168;20.776;2024-03-17T07:34:05;9.55;89.18
83405;SHT30;73331;48.168;20.776;2024-03-17T07:35:35;9.62;88.63
83405;SHT30;73331;48.168;20.776;2024-03-17T07:37:06;9.54;89.14
83405;SHT30;73331;48.168;20.776;2024-03-17T07:38:36;9.58;88.58
83405;SHT30;73331;48.168;20.776;2024-03-17T07:40:07;10.04;84.08
83405;SHT30;73331;48.168;20.776;2024-03-17T07:41:41;10.18;84.71
83405;SHT30;73331;48.168;20.776;2024-03-17T07:43:11;10.38;84.00
83405;SHT30;73331;48.168;20.776;2024-03-17T07:44:45;10.52;83.79
83405;SHT30;73331;48.168;20.776;2024-03-17T07:46:16;10.55;83.69
83405;SHT30;73331;48.168;20.776;2024-03-17T07:47:46;10.44;83.39
83405;SHT30;73331;48.168;20.776;2024-03-17T07:49:17;10.38;83.97
83405;SHT30;73331;48.168;20.776;2024-03-17T07:50:54;10.32;83.47
83405;SHT30;73331;48.168;20.776;2024-03-17T07:52:25;10.39;84.47
83405;SHT30;73331;48.168;20.776;2024-03-17T07:53:56;10.46;83.18
83405;SHT30;73331;48.168;20.776;2024-03-17T07:55:26;10.49;83.45
83405;SHT30;73331;48.168;20.776;2024-03-17T07:56:58;10.49;82.00
83405;SHT30;73331;48.168;20.776;2024-03-17T07:58:30;10.34;81.39
83405;SHT30;73331;48.168;20.776;2024-03-17T08:00:00;10.34;81.40
83405;SHT30;73331;48.168;20.776;2024-03-17T08:01:31;10.48;81.55
83405;SHT30;73331;48.168;20.776;2024-03-17T08:03:02;10.52;80.22
83405;SHT30;73331;48.168;20.776;2024-03-17T08:04:32;10.52;80.67
83405;SHT30;73331;48.168;20.776;2024-03-17T08:06:04;10.44;80.19
83405;SHT30;73331;48.168;20.776;2024-03-17T08:07:35;10.55;79.98
83405;SHT30;73331;48.168;20.776;2024-03-17T08:09:06;10.49;79.51
83405;SHT30;73331;48.168;20.776;2024-03-17T08:10:38;10.45;79.23
83405;SHT30;73331;48.168;20.776;2024-03-17T08:12:09;10.25;78.57
83405;SHT30;73331;48.168;20.776;2024-03-17T08:13:40;10.21;79.06
83405;SHT30;73331;48.168;20.776;2024-03-17T08:15:10;10.08;79.70
83405;SHT30;73331;48.168;20.776;2024-03-17T08:16:41;10.16;79.41
83405;SHT30;73331;48.168;20.776;2024-03-17T08:18:14;10.28;80.25
83405;SHT30;73331;48.168;20.776;2024-03-17T08:19:45;10.32;79.02
83405;SHT30;73331;48.168;20.776;2024-03-17T08:21:16;10.36;79.31
83405;SHT30;73331;48.168;20.776;2024-03-17T08:22:46;10.39;78.97
83405;SHT30;73331;48.168;20.776;2024-03-17T08:24:17;10.48;78.28
83405;SHT30;73331;48.168;20.776;2024-03-17T08:25:54;10.56;78.01
83405;SHT30;73331;48.168;20.776;2024-03-17T08:27:24;10.66;77.45
83405;SHT30;73331;48.168;20.776;2024-03-17T08:28:55;10.62;78.16
83405;SHT30;73331;48.168;20.776;2024-03-17T08:30:25;10.57;77.51
83405;SHT30;73331;48.168;20.776;2024-03-17T08:31:56;10.34;75.90
83405;SHT30;73331;48.168;20.776;2024-03-17T08:33:27;10.22;76.91
83405;SHT30;73331;48.168;20.776;2024-03-17T08:34:58;10.22;77.40
83405;SHT30;73331;48.168;20.776;2024-03-17T08:36:28;10.04;76.01
83405;SHT30;73331;48.168;20.776;2024-03-17T08:37:59;9.97;75.16
83405;SHT30;73331;48.168;20.776;2024-03-17T08:39:30;9.87;74.57
83405;SHT30;73331;48.168;20.776;2024-03-17T08:41:08;9.84;74.79
83405;SHT30;73331;48.168;20.776;2024-03-17T08:42:39;9.75;75.15
83405;SHT30;73331;48.168;20.776;2024-03-17T08:44:10;9.74;75.56
83405;SHT30;73331;48.168;20.776;2024-03-17T08:45:41;9.70;74.75
83405;SHT30;73331;48.168;20.776;2024-03-17T08:47:11;9.70;74.90
83405;SHT30;73331;48.168;20.776;2024-03-17T08:48:42;9.58;74.80
83405;SHT30;73331;48.168;20.776;2024-03-17T08:50:13;9.51;75.51
83405;SHT30;73331;48.168;20.776;2024-03-17T08:51:44;9.55;75.21
83405;SHT30;73331;48.168;20.776;2024-03-17T08:53:15;9.48;74.38
83405;SHT30;73331;48.168;20.776;2024-03-17T08:54:46;9.39;74.72
83405;SHT30;73331;48.168;20.776;2024-03-17T08:56:17;9.31;74.36
83405;SHT30;73331;48.168;20.776;2024-03-17T08:57:47;9.30;74.90
83405;SHT30;73331;48.168;20.776;2024-03-17T08:59:18;9.22;74.24
83405;SHT30;73331;48.168;20.776;2024-03-17T09:00:49;9.15;74.17
83405;SHT30;73331;48.168;20.776;2024-03-17T09:02:19;9.22;75.05
83405;SHT30;73331;48.168;20.776;2024-03-17T09:03:51;9.22;74.90
83405;SHT30;73331;48.168;20.776;2024-03-17T09:05:25;9.17;73.96
83405;SHT30;73331;48.168;20.776;2024-03-17T09:06:55;9.13;74.25
83405;SHT30;73331;48.168;20.776;2024-03-17T09:08:26;9.16;73.86
83405;SHT30;73331;48.168;20.776;2024-03-17T09:09:58;9.20;73.90
83405;SHT30;73331;48.168;20.776;2024-03-17T09:11:29;9.27;73.75
83405;SHT30;73331;48.168;20.776;2024-03-17T09:13:00;9.20;72.84
83405;SHT30;73331;48.168;20.776;2024-03-17T09:14:30;9.15;73.16
83405;SHT30;73331;48.168;20.776;2024-03-17T09:16:02;9.27;73.58
83405;SHT30;73331;48.168;20.776;2024-03-17T09:17:32;9.39;72.41
83405;SHT30;73331;48.168;20.776;2024-03-17T09:19:03;9.46;71.99
83405;SHT30;73331;48.168;20.776;2024-03-17T09:20:33;9.41;71.55
83405;SHT30;73331;48.168;20.776;2024-03-17T09:22:04;9.43;71.49
83405;SHT30;73331;48.168;20.776;2024-03-17T09:23:35;9.43;71.44
83405;SHT30;73331;48.168;20.776;2024-03-17T09:25:08;9.46;71.11
83405;SHT30;73331;48.168;20.776;2024-03-17T09:26:38;9.52;71.71
83405;SHT30;73331;48.168;20.776;2024-03-17T09:28:12;9.54;71.50
83405;SHT30;73331;48.168;20.776;2024-03-17T09:29:42;9.48;70.88
83405;SHT30;73331;48.168;20.776;2024-03-17T09:31:12;9.69;71.00
83405;SHT30;73331;48.168;20.776;2024-03-17T09:32:43;9.84;69.85
83405;SHT30;73331;48.168;20.776;2024-03-17T09:34:13;9.95;70.33
83405;SHT30;73331;48.168;20.776;2024-03-17T09:35:52;9.92;69.69
83405;SHT30;73331;48.168;20.776;2024-03-17T09:37:23;10.04;70.03